Time;durP1;ratioP1;P1;durP2;ratioP2;P2;SDS_P1;SDS_P2;PMS_P1;PMS_P2;Temp;Humidity;BMP_temperature;BMP_pressure;BME280_temperature;BME280_humidity;BME280_pressure;Samples;Min_cycle;Max_cycle;Signal;HPM_P1;HPM_P2
2022/05/22 00:02:03;;;;;;;;;;;14.60;99.90;;;;;;5074829;28;19909;-74
2022/05/22 00:04:30;;;;;;;;;;;14.60;99.90;;;;;;5074418;28;19909;-74
2022/05/22 00:06:57;;;;;;;;;;;14.60;99.90;;;;;;5074800;28;19909;-74
2022/05/22 00:09:24;;;;;;;;;;;14.60;99.90;;;;;;5074768;28;20424;-74
2022/05/22 00:11:50;;;;;;;;;;;14.60;99.90;;;;;;5074567;28;19916;-74
2022/05/22 00:14:18;;;;;;;;;;;14.60;99.90;;;;;;5074728;28;19954;-73
2022/05/22 00:16:46;;;;;;;;;;;14.60;99.90;;;;;;5074521;28;20008;-73
2022/05/22 00:19:15;;;;;;;;;;;14.60;99.90;;;;;;5073023;28;19909;-74
2022/05/22 00:21:42;;;;;;;;;;;14.70;99.90;;;;;;5074373;28;19975;-73
2022/05/22 00:24:10;;;;;;;;;;;14.60;99.90;;;;;;5074617;28;19955;-74
2022/05/22 00:26:36;;;;;;;;;;;14.50;99.90;;;;;;5074349;28;19912;-74
2022/05/22 00:29:03;;;;;;;;;;;14.60;99.90;;;;;;5074211;28;19954;-74
2022/05/22 00:31:30;;;;;;;;;;;14.60;99.90;;;;;;5073720;28;19920;-74
2022/05/22 00:33:56;;;;;;;;;;;14.60;99.90;;;;;;5073767;28;20416;-74
2022/05/22 00:36:23;;;;;;;;;;;14.60;99.90;;;;;;5074080;28;19962;-73
2022/05/22 00:38:50;;;;;;;;;;;14.60;99.90;;;;;;5074123;28;20398;-73
2022/05/22 00:41:17;;;;;;;;;;;14.60;99.90;;;;;;5074037;28;19908;-73
2022/05/22 00:43:49;;;;;;;;;;;14.60;99.90;;;;;;5073777;28;20273;-74
2022/05/22 00:46:16;;;;;;;;;;;14.50;99.90;;;;;;5074118;28;19908;-73
2022/05/22 00:48:45;;;;;;;;;;;14.50;99.90;;;;;;5073229;28;19908;-74
2022/05/22 00:51:11;;;;;;;;;;;14.50;99.90;;;;;;5072327;28;19920;-74
2022/05/22 00:53:54;;;;;;;;;;;14.60;99.90;;;;;;5072960;28;20290;-73
2022/05/22 00:56:24;;;;;;;;;;;14.60;99.90;;;;;;5073784;28;19938;-74
2022/05/22 00:58:53;;;;;;;;;;;14.60;99.90;;;;;;5073830;28;19908;-74
2022/05/22 01:01:20;;;;;;;;;;;14.70;99.90;;;;;;5073554;28;19910;-73
2022/05/22 01:03:47;;;;;;;;;;;14.70;99.90;;;;;;5072776;28;19912;-74
2022/05/22 01:06:24;;;;;;;;;;;14.70;99.90;;;;;;5073220;28;20130;-74
2022/05/22 01:08:51;;;;;;;;;;;14.70;99.90;;;;;;5073525;28;19908;-74
2022/05/22 01:11:21;;;;;;;;;;;14.80;99.90;;;;;;5073171;28;19952;-74
2022/05/22 01:13:56;;;;;;;;;;;14.80;99.90;;;;;;5073212;28;19908;-73
2022/05/22 01:16:25;;;;;;;;;;;14.80;99.90;;;;;;5073250;28;19909;-74
2022/05/22 01:18:53;;;;;;;;;;;14.90;99.90;;;;;;5073685;28;19956;-74
2022/05/22 01:21:22;;;;;;;;;;;14.90;99.90;;;;;;5091598;28;19915;-74
2022/05/22 01:23:50;;;;;;;;;;;14.90;99.90;;;;;;5094362;28;19952;-74
2022/05/22 01:26:17;;;;;;;;;;;14.90;99.90;;;;;;5093604;28;19908;-74
2022/05/22 01:28:44;;;;;;;;;;;14.90;99.90;;;;;;5093630;28;20404;-74
2022/05/22 01:31:11;;;;;;;;;;;14.80;99.90;;;;;;5097629;28;19990;-74
2022/05/22 01:33:38;;;;;;;;;;;14.90;99.90;;;;;;5100534;28;19916;-74
2022/05/22 01:36:06;;;;;;;;;;;15.00;99.90;;;;;;5097225;28;19922;-74
2022/05/22 01:38:33;;;;;;;;;;;14.90;99.90;;;;;;5095947;28;19915;-74
2022/05/22 01:41:00;;;;;;;;;;;14.90;99.90;;;;;;5094450;28;20003;-75
2022/05/22 01:43:26;;;;;;;;;;;15.00;99.90;;;;;;5094239;28;19908;-75
2022/05/22 01:45:56;;;;;;;;;;;15.00;99.90;;;;;;5093533;28;19941;-74
2022/05/22 01:48:23;;;;;;;;;;;15.00;99.90;;;;;;5094019;28;19908;-74
2022/05/22 01:50:50;;;;;;;;;;;15.10;99.90;;;;;;5093897;28;19920;-74
2022/05/22 01:53:19;;;;;;;;;;;15.00;99.90;;;;;;5093659;28;20324;-74
2022/05/22 01:55:45;;;;;;;;;;;15.00;99.90;;;;;;5093731;28;19915;-74
2022/05/22 01:58:12;;;;;;;;;;;14.90;99.90;;;;;;5093269;28;19908;-74
2022/05/22 02:00:39;;;;;;;;;;;14.90;99.90;;;;;;5093338;28;19913;-74
2022/05/22 02:03:07;;;;;;;;;;;14.90;99.90;;;;;;5093209;28;19923;-74
2022/05/22 02:05:34;;;;;;;;;;;14.90;99.90;;;;;;5093692;28;20351;-74
2022/05/22 02:08:19;;;;;;;;;;;14.90;99.90;;;;;;5098548;28;19912;-74
2022/05/22 02:10:47;;;;;;;;;;;15.00;99.90;;;;;;5089302;28;20385;-74
2022/05/22 02:13:18;;;;;;;;;;;15.00;99.90;;;;;;5091811;28;19912;-74
2022/05/22 02:15:45;;;;;;;;;;;15.10;99.90;;;;;;5092974;28;20256;-74
2022/05/22 02:18:12;;;;;;;;;;;15.10;99.90;;;;;;5092824;28;19908;-73
2022/05/22 02:20:38;;;;;;;;;;;15.10;99.90;;;;;;5093029;28;19970;-74
2022/05/22 02:23:05;;;;;;;;;;;15.20;99.90;;;;;;5093010;28;19919;-74
2022/05/22 02:25:34;;;;;;;;;;;15.20;99.90;;;;;;5091082;28;19993;-74
2022/05/22 02:28:02;;;;;;;;;;;15.30;99.90;;;;;;5090819;28;19909;-74
2022/05/22 02:30:31;;;;;;;;;;;15.20;99.90;;;;;;5092072;28;19912;-74
2022/05/22 02:32:57;;;;;;;;;;;15.30;99.90;;;;;;5092317;28;19912;-74
2022/05/22 02:35:25;;;;;;;;;;;15.20;99.90;;;;;;5092476;28;19916;-74
2022/05/22 02:37:53;;;;;;;;;;;15.30;99.90;;;;;;5092262;28;19922;-74
2022/05/22 02:40:21;;;;;;;;;;;15.30;99.90;;;;;;5092643;28;19908;-74
2022/05/22 02:42:48;;;;;;;;;;;15.30;99.90;;;;;;5092945;28;19952;-74
2022/05/22 02:45:17;;;;;;;;;;;15.30;99.90;;;;;;5094844;28;20482;-74
2022/05/22 02:47:43;;;;;;;;;;;15.40;99.90;;;;;;5094427;28;20115;-74
2022/05/22 02:50:11;;;;;;;;;;;15.40;99.90;;;;;;5095267;28;19942;-74
2022/05/22 02:52:37;;;;;;;;;;;15.30;99.90;;;;;;5095423;28;19916;-74
2022/05/22 02:55:05;;;;;;;;;;;15.30;99.90;;;;;;5095264;28;19918;-74
2022/05/22 02:57:35;;;;;;;;;;;15.30;99.90;;;;;;5095505;28;20270;-74
2022/05/22 03:00:04;;;;;;;;;;;15.50;99.90;;;;;;5093015;28;20325;-74
2022/05/22 03:02:30;;;;;;;;;;;15.40;99.90;;;;;;5084195;28;20004;-73
2022/05/22 03:04:57;;;;;;;;;;;15.50;99.90;;;;;;5075287;28;19908;-73
2022/05/22 03:07:24;;;;;;;;;;;15.40;99.90;;;;;;5075236;28;19936;-73
2022/05/22 03:09:51;;;;;;;;;;;15.30;99.90;;;;;;5074863;28;19908;-73
2022/05/22 03:12:19;;;;;;;;;;;15.40;99.90;;;;;;5075209;28;20344;-73
2022/05/22 03:14:50;;;;;;;;;;;15.50;99.90;;;;;;5075360;28;19916;-73
2022/05/22 03:17:17;;;;;;;;;;;15.50;99.90;;;;;;5075230;28;19916;-74
2022/05/22 03:19:44;;;;;;;;;;;15.50;99.90;;;;;;5074774;28;19913;-74
2022/05/22 03:22:11;;;;;;;;;;;15.60;99.90;;;;;;5075035;28;20258;-74
2022/05/22 03:24:38;;;;;;;;;;;15.60;99.90;;;;;;5074951;28;20378;-74
2022/05/22 03:27:06;;;;;;;;;;;15.70;99.90;;;;;;5074926;28;19920;-74
2022/05/22 03:29:33;;;;;;;;;;;15.70;99.90;;;;;;5074594;28;20416;-74
2022/05/22 03:32:00;;;;;;;;;;;15.60;99.90;;;;;;5074494;28;20371;-74
2022/05/22 03:34:26;;;;;;;;;;;15.70;99.90;;;;;;5074716;28;20442;-74
2022/05/22 03:36:53;;;;;;;;;;;15.70;99.90;;;;;;5074835;28;20283;-74
2022/05/22 03:39:20;;;;;;;;;;;15.70;99.90;;;;;;5074664;28;19908;-74
2022/05/22 03:41:47;;;;;;;;;;;15.70;99.90;;;;;;5074369;28;19913;-74
2022/05/22 03:44:14;;;;;;;;;;;15.60;99.90;;;;;;5074483;28;19912;-74
2022/05/22 03:46:40;;;;;;;;;;;15.70;99.90;;;;;;5074243;28;19908;-74
2022/05/22 03:49:07;;;;;;;;;;;15.60;99.90;;;;;;5074571;28;19983;-74
2022/05/22 03:51:34;;;;;;;;;;;15.50;99.90;;;;;;5073884;28;19924;-73
2022/05/22 03:54:01;;;;;;;;;;;15.50;99.90;;;;;;5074156;28;20322;-73
2022/05/22 03:56:28;;;;;;;;;;;15.60;99.90;;;;;;5074389;28;19995;-74
2022/05/22 03:58:54;;;;;;;;;;;15.70;99.90;;;;;;5074448;28;20408;-74
2022/05/22 04:01:21;;;;;;;;;;;15.70;99.90;;;;;;5074012;28;19915;-73
2022/05/22 04:03:48;;;;;;;;;;;15.70;99.90;;;;;;5093317;28;19966;-74
2022/05/22 04:06:14;;;;;;;;;;;15.80;99.90;;;;;;5093909;28;19912;-74
2022/05/22 04:08:41;;;;;;;;;;;15.80;99.90;;;;;;5093514;28;19912;-74
2022/05/22 04:11:09;;;;;;;;;;;15.90;99.90;;;;;;5093383;28;20324;-74
2022/05/22 04:13:36;;;;;;;;;;;16.00;99.90;;;;;;5094102;28;19912;-74
2022/05/22 04:16:03;;;;;;;;;;;16.10;99.90;;;;;;5093982;28;19999;-74
2022/05/22 04:18:29;;;;;;;;;;;16.20;99.90;;;;;;5093832;28;19908;-75
2022/05/22 04:20:56;;;;;;;;;;;16.30;99.90;;;;;;5094119;28;19908;-73
2022/05/22 04:26:07;;;;;;;;;;;16.50;99.90;;;;;;5094148;28;20000;-74
2022/05/22 04:28:34;;;;;;;;;;;16.60;99.90;;;;;;5093606;28;19916;-73
2022/05/22 04:31:03;;;;;;;;;;;16.70;99.90;;;;;;5093807;28;20370;-73
2022/05/22 04:33:30;;;;;;;;;;;16.70;99.90;;;;;;5104470;28;19987;-73
2022/05/22 04:35:57;;;;;;;;;;;16.90;99.90;;;;;;5114788;28;19915;-73
2022/05/22 04:38:24;;;;;;;;;;;16.90;99.90;;;;;;5114106;28;19957;-74
2022/05/22 04:40:58;;;;;;;;;;;16.90;99.90;;;;;;5113479;28;20052;-74
2022/05/22 04:43:25;;;;;;;;;;;17.00;99.90;;;;;;5114540;28;19919;-73
2022/05/22 04:45:51;;;;;;;;;;;17.00;99.90;;;;;;5114306;28;19907;-73
2022/05/22 04:48:19;;;;;;;;;;;17.10;99.90;;;;;;5114695;28;19907;-74
2022/05/22 04:50:46;;;;;;;;;;;17.10;99.90;;;;;;5114130;28;19977;-74
2022/05/22 04:53:13;;;;;;;;;;;17.10;99.90;;;;;;5114363;28;19961;-73
2022/05/22 04:55:40;;;;;;;;;;;17.20;99.90;;;;;;5112545;28;19908;-74
2022/05/22 04:58:07;;;;;;;;;;;17.20;99.90;;;;;;5112286;28;19966;-74
2022/05/22 05:00:34;;;;;;;;;;;17.20;99.90;;;;;;5112519;28;19922;-74
2022/05/22 05:03:00;;;;;;;;;;;17.20;99.90;;;;;;5112678;28;19908;-73
2022/05/22 05:05:28;;;;;;;;;;;17.10;99.90;;;;;;5111971;28;19955;-74
2022/05/22 05:07:55;;;;;;;;;;;17.10;99.90;;;;;;5112484;28;19911;-74
2022/05/22 05:10:21;;;;;;;;;;;17.20;99.90;;;;;;5113763;28;19915;-73
2022/05/22 05:12:48;;;;;;;;;;;17.20;99.90;;;;;;5114164;28;19908;-73
2022/05/22 05:15:16;;;;;;;;;;;17.10;99.90;;;;;;5113862;28;19907;-74
2022/05/22 05:17:44;;;;;;;;;;;17.10;99.90;;;;;;5113859;28;19907;-74
2022/05/22 05:20:11;;;;;;;;;;;17.10;99.90;;;;;;5113945;28;19908;-74
2022/05/22 05:22:38;;;;;;;;;;;17.00;99.90;;;;;;5113946;28;19907;-74
2022/05/22 05:25:05;;;;;;;;;;;17.00;99.90;;;;;;5113839;28;19908;-74
2022/05/22 05:27:32;;;;;;;;;;;16.90;99.90;;;;;;5113716;28;19908;-73
2022/05/22 05:29:59;;;;;;;;;;;17.00;99.90;;;;;;5113650;28;20327;-73
2022/05/22 05:32:25;;;;;;;;;;;17.00;99.90;;;;;;5113955;28;19933;-73
2022/05/22 05:35:00;;;;;;;;;;;17.00;99.90;;;;;;5113572;28;20441;-73
2022/05/22 05:37:27;;;;;;;;;;;16.90;99.90;;;;;;5113613;28;20310;-74
2022/05/22 05:39:54;;;;;;;;;;;16.90;99.90;;;;;;5113534;28;20499;-74
2022/05/22 05:42:22;;;;;;;;;;;16.90;99.90;;;;;;5113581;28;19915;-74
2022/05/22 05:44:48;;;;;;;;;;;16.90;99.90;;;;;;5113317;28;19908;-74
2022/05/22 05:47:15;;;;;;;;;;;16.80;99.90;;;;;;5113516;28;19954;-73
2022/05/22 05:49:41;;;;;;;;;;;16.80;99.90;;;;;;5113286;28;19938;-74
2022/05/22 05:52:08;;;;;;;;;;;16.80;99.90;;;;;;5113195;28;19928;-74
2022/05/22 05:54:35;;;;;;;;;;;16.70;99.90;;;;;;5113429;28;20427;-74
2022/05/22 05:57:01;;;;;;;;;;;16.80;99.90;;;;;;5113348;28;19953;-73
2022/05/22 05:59:28;;;;;;;;;;;16.80;99.90;;;;;;5112028;28;19909;-74
2022/05/22 06:01:55;;;;;;;;;;;16.80;99.90;;;;;;5113462;28;19908;-74
2022/05/22 06:04:21;;;;;;;;;;;16.80;99.90;;;;;;5113241;28;19915;-74
2022/05/22 06:06:48;;;;;;;;;;;16.70;99.90;;;;;;5113251;28;19991;-74
2022/05/22 06:09:15;;;;;;;;;;;16.60;99.90;;;;;;5113197;28;19915;-74
2022/05/22 06:11:41;;;;;;;;;;;16.60;99.90;;;;;;5112863;28;20299;-74
2022/05/22 06:14:08;;;;;;;;;;;16.60;99.90;;;;;;5112915;28;19912;-74
2022/05/22 06:16:34;;;;;;;;;;;16.50;99.90;;;;;;5112829;28;19934;-74
2022/05/22 06:19:01;;;;;;;;;;;16.50;99.90;;;;;;5116893;28;20223;-74
2022/05/22 06:21:28;;;;;;;;;;;16.40;99.90;;;;;;5117443;28;19955;-74
2022/05/22 06:23:54;;;;;;;;;;;16.40;99.90;;;;;;5117254;28;19916;-74
2022/05/22 06:26:21;;;;;;;;;;;16.40;99.90;;;;;;5117514;28;20427;-74
2022/05/22 06:28:48;;;;;;;;;;;16.40;99.90;;;;;;5117116;28;19935;-74
2022/05/22 06:31:14;;;;;;;;;;;16.50;99.90;;;;;;5116827;28;19920;-74
2022/05/22 06:33:41;;;;;;;;;;;16.50;99.90;;;;;;5116713;28;19914;-74
2022/05/22 06:36:10;;;;;;;;;;;16.50;99.90;;;;;;5116918;28;20002;-73
2022/05/22 06:41:21;;;;;;;;;;;16.40;99.90;;;;;;5116903;28;20044;-73
2022/05/22 06:43:51;;;;;;;;;;;16.40;99.90;;;;;;5116545;28;19908;-74
2022/05/22 06:46:19;;;;;;;;;;;16.50;99.90;;;;;;5116674;28;19907;-74
2022/05/22 06:48:45;;;;;;;;;;;16.50;99.90;;;;;;5116854;28;19957;-74
2022/05/22 06:51:12;;;;;;;;;;;16.50;99.90;;;;;;5116503;28;19924;-73
2022/05/22 06:53:39;;;;;;;;;;;16.50;99.90;;;;;;5116413;28;19907;-73
2022/05/22 06:56:05;;;;;;;;;;;16.50;99.90;;;;;;5116752;28;19915;-74
2022/05/22 06:58:32;;;;;;;;;;;16.50;99.90;;;;;;5116799;28;19915;-73
2022/05/22 07:00:59;;;;;;;;;;;16.60;99.90;;;;;;5116580;28;20354;-73
2022/05/22 07:03:25;;;;;;;;;;;16.60;99.90;;;;;;5116475;28;19908;-74
2022/05/22 07:05:52;;;;;;;;;;;16.50;99.90;;;;;;5116172;28;20316;-74
2022/05/22 07:08:19;;;;;;;;;;;16.40;99.90;;;;;;5116594;28;19908;-74
2022/05/22 07:13:30;;;;;;;;;;;16.40;99.90;;;;;;5116760;28;20011;-74
2022/05/22 07:16:00;;;;;;;;;;;16.40;99.90;;;;;;5116343;28;19908;-74
2022/05/22 07:18:27;;;;;;;;;;;16.30;99.90;;;;;;5116386;28;19946;-74
2022/05/22 07:20:54;;;;;;;;;;;16.20;99.90;;;;;;5116273;28;19911;-74
2022/05/22 07:23:20;;;;;;;;;;;16.20;99.90;;;;;;5116151;28;19908;-75
2022/05/22 07:25:47;;;;;;;;;;;16.20;99.90;;;;;;5116075;28;19907;-75
2022/05/22 07:28:14;;;;;;;;;;;16.30;99.90;;;;;;5115557;28;19943;-74
2022/05/22 07:30:40;;;;;;;;;;;16.30;99.90;;;;;;5115766;28;19911;-74
2022/05/22 07:33:07;;;;;;;;;;;16.20;99.90;;;;;;5116154;28;19912;-75
2022/05/22 07:35:34;;;;;;;;;;;16.20;99.90;;;;;;5115931;28;19999;-74
2022/05/22 07:38:01;;;;;;;;;;;16.20;99.90;;;;;;5115859;28;19908;-74
2022/05/22 07:40:29;;;;;;;;;;;16.20;99.90;;;;;;5116104;28;19955;-74
2022/05/22 07:42:55;;;;;;;;;;;16.20;99.90;;;;;;5115810;28;19915;-74
2022/05/22 07:45:24;;;;;;;;;;;16.10;99.90;;;;;;5115637;28;19930;-75
2022/05/22 07:47:52;;;;;;;;;;;16.10;99.90;;;;;;5114519;28;19908;-74
2022/05/22 07:50:21;;;;;;;;;;;16.00;99.90;;;;;;5113097;28;19916;-75
2022/05/22 07:52:50;;;;;;;;;;;16.00;99.90;;;;;;5113833;28;19914;-74
2022/05/22 07:55:19;;;;;;;;;;;16.00;99.90;;;;;;5113778;28;20314;-75
2022/05/22 07:57:47;;;;;;;;;;;15.90;99.90;;;;;;5079236;28;19912;-75
2022/05/22 08:00:15;;;;;;;;;;;15.90;99.90;;;;;;5072794;28;19913;-74
2022/05/22 08:02:42;;;;;;;;;;;15.90;99.90;;;;;;5072550;28;19909;-75
2022/05/22 08:05:10;;;;;;;;;;;15.80;99.90;;;;;;5072620;28;19912;-75
2022/05/22 08:07:36;;;;;;;;;;;15.80;99.90;;;;;;5072343;28;19908;-75
2022/05/22 08:10:04;;;;;;;;;;;15.80;99.90;;;;;;5072431;28;19909;-76
2022/05/22 08:12:35;;;;;;;;;;;15.70;99.90;;;;;;5072638;28;19913;-75
2022/05/22 08:15:02;;;;;;;;;;;15.70;99.90;;;;;;5072636;28;19915;-75
2022/05/22 08:17:35;;;;;;;;;;;15.70;99.90;;;;;;5072268;28;19908;-75
2022/05/22 08:20:07;;;;;;;;;;;15.60;99.90;;;;;;5072179;28;20321;-75
2022/05/22 08:22:33;;;;;;;;;;;15.70;99.90;;;;;;5072282;28;19935;-75
2022/05/22 08:25:04;;;;;;;;;;;15.70;99.90;;;;;;5072433;28;19908;-75
2022/05/22 08:27:30;;;;;;;;;;;15.70;99.90;;;;;;5072238;28;19914;-75
2022/05/22 08:29:57;;;;;;;;;;;15.70;99.90;;;;;;5072294;28;19971;-76
2022/05/22 08:32:23;;;;;;;;;;;15.70;99.90;;;;;;5072357;28;19916;-76
2022/05/22 08:34:54;;;;;;;;;;;15.70;99.90;;;;;;5072262;28;19956;-74
2022/05/22 08:37:21;;;;;;;;;;;15.70;99.90;;;;;;5071922;28;19908;-77
2022/05/22 08:39:47;;;;;;;;;;;15.70;99.90;;;;;;5071219;28;20317;-78
2022/05/22 08:42:16;;;;;;;;;;;15.40;99.90;;;;;;5072077;28;19917;-78
2022/05/22 08:44:43;;;;;;;;;;;15.20;99.90;;;;;;5072000;28;19955;-76
2022/05/22 08:47:20;;;;;;;;;;;15.10;99.90;;;;;;5072163;28;20300;-75
2022/05/22 08:49:50;;;;;;;;;;;15.00;99.90;;;;;;5071521;28;19913;-76
2022/05/22 08:52:22;;;;;;;;;;;14.90;99.90;;;;;;5071887;28;19925;-75
2022/05/22 08:54:56;;;;;;;;;;;14.90;99.90;;;;;;5071879;28;19915;-76
2022/05/22 09:00:09;;;;;;;;;;;14.90;99.90;;;;;;5071748;28;19919;-76
2022/05/22 09:02:38;;;;;;;;;;;14.80;99.90;;;;;;5071577;28;19909;-76
2022/05/22 09:05:09;;;;;;;;;;;14.80;99.90;;;;;;5073127;28;19998;-76
2022/05/22 09:07:39;;;;;;;;;;;14.90;99.90;;;;;;5073650;28;19954;-76
2022/05/22 09:10:08;;;;;;;;;;;14.90;99.90;;;;;;5073537;28;19966;-76
2022/05/22 09:12:53;;;;;;;;;;;14.80;99.90;;;;;;5073661;28;19970;-76
2022/05/22 09:15:23;;;;;;;;;;;14.80;99.90;;;;;;5073576;28;20408;-76
2022/05/22 09:17:49;;;;;;;;;;;14.80;99.90;;;;;;5073456;28;19959;-76
2022/05/22 09:20:20;;;;;;;;;;;14.90;99.90;;;;;;5073588;28;20355;-76
2022/05/22 09:22:53;;;;;;;;;;;14.80;99.90;;;;;;5073565;28;19977;-76
2022/05/22 09:25:35;;;;;;;;;;;14.90;99.90;;;;;;5073588;28;19915;-76
2022/05/22 09:28:20;;;;;;;;;;;14.80;99.90;;;;;;5073459;28;19939;-76
2022/05/22 09:31:06;;;;;;;;;;;14.70;99.90;;;;;;5072990;28;19938;-76
2022/05/22 09:33:51;;;;;;;;;;;14.60;99.90;;;;;;5073078;28;19908;-73
2022/05/22 09:36:35;;;;;;;;;;;14.50;99.90;;;;;;5073308;28;20375;-74
2022/05/22 09:39:19;;;;;;;;;;;14.50;99.90;;;;;;5073293;28;19909;-77
2022/05/22 09:41:52;;;;;;;;;;;14.50;99.90;;;;;;5072964;28;19909;-73
2022/05/22 09:44:31;;;;;;;;;;;14.50;99.90;;;;;;5072775;28;19909;-75
2022/05/22 09:47:20;;;;;;;;;;;14.50;99.90;;;;;;5073264;28;19967;-74
2022/05/22 09:50:04;;;;;;;;;;;14.50;99.90;;;;;;5072942;28;19915;-74
2022/05/22 09:52:46;;;;;;;;;;;14.50;99.90;;;;;;5073105;28;19920;-74
2022/05/22 09:55:23;;;;;;;;;;;14.40;99.90;;;;;;5073074;28;19995;-75
2022/05/22 09:57:50;;;;;;;;;;;14.40;99.90;;;;;;5072943;28;19912;-76
2022/05/22 10:00:18;;;;;;;;;;;14.40;99.90;;;;;;5072659;28;19909;-74
2022/05/22 10:03:03;;;;;;;;;;;14.40;99.90;;;;;;5073102;28;20316;-74
2022/05/22 10:05:41;;;;;;;;;;;14.40;99.90;;;;;;5073084;28;19908;-75
2022/05/22 10:08:17;;;;;;;;;;;14.50;99.90;;;;;;5073124;28;19956;-76
2022/05/22 10:10:49;;;;;;;;;;;14.40;99.90;;;;;;5072987;28;20393;-75
2022/05/22 10:13:34;;;;;;;;;;;14.50;99.90;;;;;;5072627;28;19912;-74
2022/05/22 10:16:01;;;;;;;;;;;14.40;99.90;;;;;;5073073;28;19931;-74
2022/05/22 10:18:46;;;;;;;;;;;14.30;99.90;;;;;;5072820;28;20389;-74
2022/05/22 10:21:12;;;;;;;;;;;14.30;99.90;;;;;;5073057;28;19915;-76
2022/05/22 10:23:39;;;;;;;;;;;14.30;99.90;;;;;;5072695;28;20321;-76
2022/05/22 10:26:15;;;;;;;;;;;14.30;99.90;;;;;;5072909;28;19916;-74
2022/05/22 10:28:47;;;;;;;;;;;14.30;99.90;;;;;;5072097;28;19999;-74
2022/05/22 10:31:19;;;;;;;;;;;14.40;99.90;;;;;;5072790;28;19920;-74
2022/05/22 10:33:57;;;;;;;;;;;14.30;99.90;;;;;;5072736;28;19909;-74
2022/05/22 10:36:33;;;;;;;;;;;14.20;99.90;;;;;;5072882;28;19916;-75
2022/05/22 10:39:07;;;;;;;;;;;14.10;99.90;;;;;;5072812;28;19908;-74
2022/05/22 10:44:29;;;;;;;;;;;14.00;99.90;;;;;;5072474;28;19934;-74
2022/05/22 10:46:58;;;;;;;;;;;13.90;99.90;;;;;;5072689;28;19909;-75
2022/05/22 10:49:25;;;;;;;;;;;13.90;99.90;;;;;;5072689;28;19912;-73
2022/05/22 10:51:57;;;;;;;;;;;13.90;99.90;;;;;;5072267;28;20008;-74
2022/05/22 10:54:26;;;;;;;;;;;13.80;99.90;;;;;;5072659;28;19915;-74
2022/05/22 10:56:52;;;;;;;;;;;13.80;99.90;;;;;;5072646;28;19909;-74
2022/05/22 10:59:22;;;;;;;;;;;13.80;99.90;;;;;;5071971;28;19908;-74
2022/05/22 11:02:03;;;;;;;;;;;13.80;99.90;;;;;;5072391;28;19909;-74
2022/05/22 11:04:38;;;;;;;;;;;13.80;99.90;;;;;;5075542;28;20279;-75
2022/05/22 11:07:06;;;;;;;;;;;13.80;99.90;;;;;;5076110;28;19920;-74
2022/05/22 11:09:44;;;;;;;;;;;13.70;99.90;;;;;;5075913;28;19915;-73
2022/05/22 11:12:12;;;;;;;;;;;13.70;99.90;;;;;;5075397;28;19960;-74
2022/05/22 11:14:40;;;;;;;;;;;13.70;99.90;;;;;;5076196;28;19916;-74
2022/05/22 11:17:18;;;;;;;;;;;13.60;99.90;;;;;;5075920;28;19970;-74
2022/05/22 11:19:47;;;;;;;;;;;13.60;99.90;;;;;;5075647;28;19908;-74
2022/05/22 11:22:16;;;;;;;;;;;13.60;99.90;;;;;;5075854;28;20429;-74
2022/05/22 11:24:43;;;;;;;;;;;13.50;99.90;;;;;;5075850;28;19943;-73
2022/05/22 11:27:10;;;;;;;;;;;13.60;99.90;;;;;;5075289;28;19908;-73
2022/05/22 11:29:39;;;;;;;;;;;13.50;99.90;;;;;;5088266;28;19963;-75
2022/05/22 11:32:24;;;;;;;;;;;13.60;99.90;;;;;;5095210;28;20345;-75
2022/05/22 11:35:08;;;;;;;;;;;13.60;99.90;;;;;;5095831;28;20450;-74
2022/05/22 11:37:54;;;;;;;;;;;13.60;99.90;;;;;;5095079;28;19919;-74
2022/05/22 11:40:25;;;;;;;;;;;13.60;99.90;;;;;;5095797;28;19916;-74
2022/05/22 11:42:58;;;;;;;;;;;13.60;99.90;;;;;;5095126;28;20368;-73
2022/05/22 11:45:32;;;;;;;;;;;13.60;99.90;;;;;;5094423;28;19908;-75
2022/05/22 11:47:59;;;;;;;;;;;13.60;99.90;;;;;;5095465;28;19915;-75
2022/05/22 11:50:38;;;;;;;;;;;13.50;99.90;;;;;;5095418;28;19920;-74
2022/05/22 11:53:04;;;;;;;;;;;13.60;99.90;;;;;;5094314;28;19919;-73
2022/05/22 11:55:36;;;;;;;;;;;13.50;99.90;;;;;;5091891;28;19919;-74
2022/05/22 11:58:09;;;;;;;;;;;13.50;99.90;;;;;;5093462;28;19930;-74
2022/05/22 12:00:40;;;;;;;;;;;13.40;99.90;;;;;;5092158;28;19973;-74
2022/05/22 12:03:24;;;;;;;;;;;13.40;99.90;;;;;;5093633;28;20004;-73
2022/05/22 12:06:12;;;;;;;;;;;13.40;99.90;;;;;;5093323;28;19908;-74
2022/05/22 12:09:00;;;;;;;;;;;13.50;99.90;;;;;;5094693;28;19916;-74
2022/05/22 12:11:35;;;;;;;;;;;13.40;99.90;;;;;;5095161;28;20018;-73
2022/05/22 12:14:04;;;;;;;;;;;13.40;99.90;;;;;;5094931;28;19953;-75
2022/05/22 12:16:42;;;;;;;;;;;13.40;99.90;;;;;;5093753;28;19908;-74
2022/05/22 12:19:34;;;;;;;;;;;13.40;99.90;;;;;;5094907;28;19947;-75
2022/05/22 12:22:04;;;;;;;;;;;13.30;99.90;;;;;;5092861;28;20355;-74
2022/05/22 12:24:38;;;;;;;;;;;13.40;99.90;;;;;;5094979;28;19978;-74
2022/05/22 12:27:09;;;;;;;;;;;13.40;99.90;;;;;;5094873;28;19912;-75
2022/05/22 12:29:42;;;;;;;;;;;13.40;99.90;;;;;;5094632;28;19908;-74
2022/05/22 12:32:19;;;;;;;;;;;13.30;99.90;;;;;;5094803;28;19923;-74
2022/05/22 12:34:49;;;;;;;;;;;13.30;99.90;;;;;;5094818;28;20504;-73
2022/05/22 12:37:35;;;;;;;;;;;13.30;99.90;;;;;;5094629;28;19908;-74
2022/05/22 12:40:12;;;;;;;;;;;13.30;99.90;;;;;;5094145;28;19915;-74
2022/05/22 12:42:40;;;;;;;;;;;13.30;99.90;;;;;;5094467;28;19970;-74
2022/05/22 12:45:07;;;;;;;;;;;13.30;99.90;;;;;;5094612;28;19991;-74
2022/05/22 12:47:44;;;;;;;;;;;13.20;99.90;;;;;;5094264;28;19934;-74
2022/05/22 12:50:11;;;;;;;;;;;13.20;99.90;;;;;;5094401;28;20358;-73
2022/05/22 12:52:40;;;;;;;;;;;13.30;99.90;;;;;;5094326;28;20380;-74
2022/05/22 12:55:19;;;;;;;;;;;13.30;99.90;;;;;;5094283;28;19908;-73
2022/05/22 12:57:53;;;;;;;;;;;13.30;99.90;;;;;;5094003;28;19908;-74
2022/05/22 13:00:30;;;;;;;;;;;13.30;99.90;;;;;;5094123;28;19969;-74
2022/05/22 13:03:08;;;;;;;;;;;13.30;99.90;;;;;;5094125;28;19908;-74
2022/05/22 13:05:35;;;;;;;;;;;13.30;99.90;;;;;;5093973;28;20377;-74
2022/05/22 13:08:13;;;;;;;;;;;13.30;99.90;;;;;;5094067;28;19996;-74
2022/05/22 13:10:45;;;;;;;;;;;13.30;99.90;;;;;;5093964;28;19938;-74
2022/05/22 13:13:20;;;;;;;;;;;13.30;99.90;;;;;;5093861;28;19951;-74
2022/05/22 13:15:55;;;;;;;;;;;13.30;99.90;;;;;;5093808;28;19908;-74
2022/05/22 13:18:22;;;;;;;;;;;13.30;99.90;;;;;;5093955;28;19908;-74
2022/05/22 13:20:50;;;;;;;;;;;13.30;99.90;;;;;;5093813;28;19953;-74
2022/05/22 13:23:20;;;;;;;;;;;13.30;99.90;;;;;;5093837;28;19999;-74
2022/05/22 13:25:48;;;;;;;;;;;13.20;99.90;;;;;;5093030;28;19912;-74
2022/05/22 13:28:21;;;;;;;;;;;13.20;99.90;;;;;;5093492;28;19908;-75
2022/05/22 13:31:11;;;;;;;;;;;13.30;99.90;;;;;;5093652;28;20412;-74
2022/05/22 13:33:41;;;;;;;;;;;13.30;99.90;;;;;;5074132;28;19912;-76
2022/05/22 13:36:27;;;;;;;;;;;13.30;99.90;;;;;;5093595;28;19943;-74
2022/05/22 13:38:55;;;;;;;;;;;13.30;99.90;;;;;;5093709;28;20313;-74
2022/05/22 13:41:28;;;;;;;;;;;13.30;99.90;;;;;;5093653;28;20355;-74
2022/05/22 13:44:07;;;;;;;;;;;13.30;99.90;;;;;;5093249;28;19920;-74
2022/05/22 13:46:51;;;;;;;;;;;13.40;99.90;;;;;;5093508;28;19908;-75
2022/05/22 13:49:36;;;;;;;;;;;13.30;99.90;;;;;;5093568;28;19973;-74
2022/05/22 13:54:54;;;;;;;;;;;13.40;99.90;;;;;;5093857;28;19916;-75
2022/05/22 13:57:21;;;;;;;;;;;13.40;99.90;;;;;;5093288;28;20374;-74
2022/05/22 13:59:52;;;;;;;;;;;13.40;99.90;;;;;;5093091;28;19970;-74
2022/05/22 14:02:24;;;;;;;;;;;13.30;99.90;;;;;;5093488;28;19908;-74
2022/05/22 14:04:52;;;;;;;;;;;13.30;99.90;;;;;;5093463;28;19909;-74
2022/05/22 14:07:24;;;;;;;;;;;13.40;99.90;;;;;;5093286;28;19961;-74
2022/05/22 14:09:52;;;;;;;;;;;13.40;99.90;;;;;;5093208;28;19961;-75
2022/05/22 14:12:25;;;;;;;;;;;13.40;99.90;;;;;;5093121;28;20281;-74
2022/05/22 14:14:51;;;;;;;;;;;13.40;99.90;;;;;;5093316;28;19977;-75
2022/05/22 14:17:36;;;;;;;;;;;13.40;99.90;;;;;;5093206;28;19909;-74
2022/05/22 14:20:13;;;;;;;;;;;13.40;99.90;;;;;;5091045;28;20306;-74
2022/05/22 14:22:40;;;;;;;;;;;13.50;99.90;;;;;;5093231;28;19914;-74
2022/05/22 14:25:10;;;;;;;;;;;13.50;99.90;;;;;;5093257;28;20431;-74
2022/05/22 14:27:36;;;;;;;;;;;13.60;99.90;;;;;;5091553;28;19957;-76
2022/05/22 14:30:07;;;;;;;;;;;13.60;99.90;;;;;;5093107;28;19934;-74
2022/05/22 14:32:35;;;;;;;;;;;13.60;99.90;;;;;;5092937;28;19966;-73
2022/05/22 14:35:06;;;;;;;;;;;13.70;99.90;;;;;;5091845;28;20305;-73
2022/05/22 14:37:42;;;;;;;;;;;13.60;99.90;;;;;;5092926;28;19976;-74
2022/05/22 14:40:17;;;;;;;;;;;13.60;99.90;;;;;;5096961;28;19908;-74
2022/05/22 14:42:45;;;;;;;;;;;13.60;99.90;;;;;;5096747;28;20085;-73
2022/05/22 14:45:32;;;;;;;;;;;13.60;99.90;;;;;;5096729;28;19908;-74
2022/05/22 14:48:00;;;;;;;;;;;13.50;99.90;;;;;;5096308;28;20004;-73
2022/05/22 14:50:27;;;;;;;;;;;13.50;99.90;;;;;;5096523;28;19965;-73